Latest Weather Observations for Windorah

IDQ60801

Issued at 10:12 pm EST Thursday 24 September 2020 (issued every 10 minutes, with the page automatically refreshed every 10 minutes)

About weather observations | Map of weather stations | Latest weather observations for QLD | Other Formats
Station Details ID: 038076 Name: WINDORAH AIRPORT Lat: -25.41 Lon: 142.66 Height: 132.16 m
Data from the previous 72 hours. | See also: Recent months at Windorah
Date/Time
EST
Temp
°C
App
Temp
°C
Dew
Point
°C
Rel
Hum
%
Delta-T
°C
Wind Press
QNH
hPa
Press
MSL
hPa
Rain since
9am
mm
Dir  Spd
km/h
Gust
km/h
Spd
kts
Gust
kts
24/10:00pm 18.2 14.7 -1.6 26 8.4 SW 7 11 4 6 1016.4 1016.0 0.0
24/09:30pm 18.6 14.7 -1.8 25 8.6 SW 9 11 5 6 1016.4 1016.0 0.0
24/09:00pm 19.4 15.2 -3.5 21 9.4 WSW 9 13 5 7 1016.4 1016.0 0.0
24/08:30pm 20.4 15.8 -4.0 19 10.0 WSW 11 15 6 8 1016.5 1016.1 0.0
24/08:00pm 21.1 16.5 -4.1 18 10.4 WSW 11 15 6 8 1016.1 1015.7 0.0
24/07:30pm 21.6 17.0 -4.5 17 10.8 WSW 11 15 6 8 1015.6 1015.2 0.0
24/07:00pm 22.5 18.2 -4.5 16 11.2 WSW 9 11 5 6 1015.5 1015.1 0.0
24/06:30pm 24.0 18.9 -5.1 14 12.1 WSW 13 17 7 9 1015.3 1014.9 0.0
24/06:00pm 25.1 19.5 -6.3 12 12.9 W 15 20 8 11 1015.1 1014.7 0.0
24/05:30pm 25.4 19.2 -5.0 13 12.9 WSW 19 22 10 12 1015.1 1014.7 0.0
24/05:00pm 26.0 19.7 -5.6 12 13.3 WSW 19 24 10 13 1015.2 1014.8 0.0
24/04:30pm 25.8 21.0 -5.7 12 13.2 WSW 11 20 6 11 1014.9 1014.5 0.0
24/04:00pm 26.0 20.9 -5.6 12 13.3 SW 13 20 7 11 1015.2 1014.8 0.0
24/03:30pm 26.0 21.0 -4.5 13 13.1 WSW 13 20 7 11 1015.3 1014.9 0.0
24/03:00pm 26.0 21.8 -3.5 14 12.9 SW 9 20 5 11 1015.5 1015.1 0.0
24/02:30pm 25.1 20.6 -3.3 15 12.4 NW 11 19 6 10 1015.8 1015.4 0.0
24/02:00pm 25.1 21.4 -2.5 16 12.2 N 7 15 4 8 1016.2 1015.8 0.0
24/01:30pm 24.5 20.9 -3.8 15 12.2 N 6 11 3 6 1016.9 1016.5 0.0
24/01:00pm 23.3 19.2 -3.1 17 11.3 ENE 9 20 5 11 1017.1 1016.7 0.0
24/12:30pm 22.8 18.7 -2.7 18 11.0 SE 9 15 5 8 1017.8 1017.4 0.0
24/12:00pm 22.9 18.9 -1.9 19 10.9 SW 9 13 5 7 1018.2 1017.8 0.0
24/11:30am 22.7 19.1 -2.1 19 10.8 SSW 7 20 4 11 1019.1 1018.7 0.0
24/11:00am 21.7 17.5 -0.9 22 10.0 SE 11 19 6 10 1019.5 1019.1 0.0
24/10:30am 21.5 16.7 0.1 24 9.7 ESE 15 22 8 12 1020.1 1019.7 0.0
24/10:00am 20.5 15.1 1.4 28 8.7 ESE 19 28 10 15 1020.4 1020.0 0.0
24/09:30am 19.8 14.4 2.6 32 8.0 SE 20 28 11 15 1020.5 1020.1 0.0
24/09:00am 19.1 14.4 3.3 35 7.4 SE 17 22 9 12 1020.8 1020.4 0.0
24/08:30am 17.8 13.4 2.9 37 6.9 SSE 15 20 8 11 1020.5 1020.1 0.0
24/08:00am 16.1 12.5 2.9 41 6.0 SSE 11 15 6 8 1020.3 1019.9 0.0
24/07:30am 14.4 11.1 2.6 45 5.3 SSE 9 13 5 7 1020.1 1019.7 0.0
24/07:00am 13.4 10.7 2.9 49 4.7 SSE 6 7 3 4 1019.8 1019.4 0.0
24/06:30am 12.3 10.2 4.0 57 3.8 SSE 4 7 2 4 1019.7 1019.3 0.0
24/06:00am 11.4 10.5 6.1 70 2.5 CALM 0 0 0 0 1019.5 1019.1 0.0
24/05:30am 12.1 10.0 4.1 58 3.6 SSW 4 7 2 4 1019.2 1018.8 0.0
24/05:00am 11.7 9.4 4.7 62 3.2 WNW 6 7 3 4 1019.0 1018.6 0.0
24/04:30am 11.7 9.3 4.4 61 3.3 SW 6 7 3 4 1018.6 1018.3 0.0
24/04:00am 11.7 9.0 3.5 57 3.6 W 7 7 4 4 1018.4 1018.0 0.0
24/03:30am 12.2 9.1 3.4 55 3.9 W 9 11 5 6 1018.3 1017.9 0.0
24/03:00am 12.7 9.9 3.1 52 4.3 W 7 9 4 5 1018.4 1018.0 0.0
24/02:30am 13.2 10.2 2.1 47 4.9 S 7 9 4 5 1018.4 1018.0 0.0
24/02:00am 13.6 10.2 1.6 44 5.2 S 9 9 5 5 1018.3 1017.9 0.0
24/01:30am 14.3 10.5 1.6 42 5.6 S 11 13 6 7 1018.5 1018.2 0.0
24/01:00am 14.3 10.9 1.9 43 5.4 S 9 13 5 7 1018.9 1018.5 0.0
24/12:30am 14.7 11.6 1.3 40 5.8 S 7 9 4 5 1019.4 1019.0 0.0
24/12:00am 15.0 11.9 1.2 39 6.0 S 7 9 4 5 1019.7 1019.3 0.0
 
Date/Time
EST
Temp
°C
App
Temp
°C
Dew
Point
°C
Rel
Hum
%
Delta-T
°C
Wind Press
QNH
hPa
Press
MSL
hPa
Rain since
9am
mm
Dir  Spd
km/h
Gust
km/h
Spd
kts
Gust
kts
23/11:30pm 15.6 12.5 1.4 38 6.3 SSW 7 9 4 5 1019.7 1019.3 0.0
23/11:00pm 15.9 12.8 1.6 38 6.3 SSW 7 9 4 5 1019.8 1019.4 0.0
23/10:30pm 16.7 13.4 0.4 33 7.1 SSW 7 9 4 5 1020.0 1019.6 0.0
23/10:00pm 17.2 13.2 0.8 33 7.2 SW 11 13 6 7 1020.2 1019.8 0.0
23/09:30pm 17.9 13.8 0.1 30 7.8 SW 11 15 6 8 1020.2 1019.8 0.0
23/09:00pm 18.8 14.0 -0.1 28 8.3 SW 15 17 8 9 1019.9 1019.5 0.0
23/08:30pm 19.2 15.1 -0.2 27 8.5 SW 11 15 6 8 1019.5 1019.1 0.0
23/08:00pm 20.1 16.4 0.0 26 8.9 SSW 9 11 5 6 1019.1 1018.7 0.0
23/07:30pm 21.3 16.8 -0.6 23 9.7 SSW 13 17 7 9 1018.9 1018.5 0.0
23/07:00pm 22.4 17.9 -0.3 22 10.2 S 13 15 7 8 1018.5 1018.2 0.0
23/06:30pm 23.8 18.0 -1.2 19 11.2 SSW 19 26 10 14 1018.1 1017.7 0.0
23/06:00pm 25.1 18.7 -1.6 17 12.0 SSW 22 30 12 16 1017.8 1017.4 0.0
23/05:30pm 26.0 19.1 -2.6 15 12.7 SSW 24 32 13 17 1017.8 1017.4 0.0
23/05:00pm 26.7 19.4 -3.0 14 13.2 SW 26 35 14 19 1017.7 1017.3 0.0
23/04:30pm 26.5 20.5 -1.3 16 12.7 SSW 20 30 11 16 1017.5 1017.1 0.0
23/04:00pm 26.5 19.9 -0.5 17 12.5 SSW 24 35 13 19 1017.6 1017.2 0.0
23/03:30pm 26.1 18.8 0.0 18 12.2 SSW 28 41 15 22 1017.9 1017.5 0.0
23/03:00pm 27.0 20.3 -0.9 16 12.9 S 24 33 13 18 1018.0 1017.6 0.0
23/02:30pm 26.7 20.1 -0.3 17 12.6 SSW 24 33 13 18 1018.2 1017.8 0.0
23/02:00pm 26.9 20.4 0.6 18 12.5 SSW 24 35 13 19 1018.8 1018.4 0.0
23/01:30pm 26.1 19.4 1.4 20 11.8 S 26 44 14 24 1019.2 1018.8 0.0
23/01:00pm 26.4 19.7 1.7 20 11.9 S 26 41 14 22 1019.6 1019.2 0.0
23/12:30pm 26.3 19.9 0.9 19 12.1 S 24 32 13 17 1020.1 1019.7 0.0
23/12:00pm 25.0 18.3 1.2 21 11.2 S 26 41 14 22 1020.4 1020.0 0.0
23/11:30am 25.0 18.4 1.8 22 11.1 S 26 39 14 21 1020.9 1020.5 0.0
23/11:00am 23.8 17.1 1.4 23 10.5 S 26 41 14 22 1021.4 1021.0 0.0
23/10:30am 23.2 16.2 2.1 25 10.0 S 28 39 15 21 1021.7 1021.3 0.0
23/10:00am 22.6 15.9 1.6 25 9.8 S 26 44 14 24 1021.4 1021.0 0.0
23/09:30am 22.1 15.4 1.7 26 9.5 SSE 26 35 14 19 1021.4 1021.0 0.0
23/09:00am 21.7 15.8 1.9 27 9.2 S 22 28 12 15 1021.6 1021.2 0.0
23/08:30am 20.7 14.6 3.0 31 8.4 S 24 32 13 17 1021.4 1021.0 0.0
23/08:00am 18.6 13.4 3.6 37 7.1 S 20 28 11 15 1021.1 1020.7 0.0
23/07:30am 17.1 13.3 4.1 42 6.1 S 13 17 7 9 1020.5 1020.1 0.0
23/07:00am 15.5 13.0 3.9 46 5.4 S 6 9 3 5 1020.5 1020.1 0.0
23/06:30am 15.0 11.9 3.8 47 5.2 S 9 11 5 6 1020.0 1019.6 0.0
23/06:00am 15.9 12.1 3.7 44 5.6 S 13 17 7 9 1019.6 1019.2 0.0
23/05:30am 16.3 12.5 3.7 43 5.9 S 13 17 7 9 1019.3 1018.9 0.0
23/05:00am 16.6 12.8 3.7 42 6.0 S 13 15 7 8 1018.8 1018.4 0.0
23/04:30am 16.9 13.0 3.6 41 6.2 S 13 17 7 9 1018.3 1017.9 0.0
23/04:00am 17.1 13.6 3.4 40 6.4 S 11 15 6 8 1018.4 1018.0 0.0
23/03:30am 17.5 13.6 3.4 39 6.6 S 13 17 7 9 1018.2 1017.8 0.0
23/03:00am 18.0 13.6 2.7 36 7.1 S 15 19 8 10 1018.2 1017.8 0.0
23/02:30am 18.8 14.4 2.6 34 7.5 S 15 20 8 11 1018.3 1017.9 0.0
23/02:00am 19.5 14.7 2.4 32 7.9 S 17 22 9 12 1018.2 1017.8 0.0
23/01:30am 19.9 15.5 2.7 32 8.1 S 15 19 8 10 1018.3 1017.9 0.0
23/01:00am 20.1 15.7 2.5 31 8.2 S 15 20 8 11 1018.3 1017.9 0.0
23/12:30am 20.7 16.2 2.0 29 8.7 S 15 20 8 11 1018.3 1017.9 0.0
23/12:00am 21.7 16.2 1.9 27 9.2 S 20 26 11 14 1018.1 1017.7 0.0
 
Date/Time
EST
Temp
°C
App
Temp
°C
Dew
Point
°C
Rel
Hum
%
Delta-T
°C
Wind Press
QNH
hPa
Press
MSL
hPa
Rain since
9am
mm
Dir  Spd
km/h
Gust
km/h
Spd
kts
Gust
kts
22/11:30pm 21.3 16.8 2.1 28 9.0 S 15 19 8 10 1018.1 1017.7 0.0
22/11:00pm 21.2 17.1 2.0 28 8.9 SSW 13 17 7 9 1018.2 1017.8 0.0
22/10:30pm 20.8 17.1 2.6 30 8.6 S 11 11 6 6 1018.1 1017.7 0.0
22/10:00pm 21.4 17.7 2.2 28 9.0 SSW 11 13 6 7 1018.1 1017.7 0.0
22/09:30pm 22.5 19.5 2.1 26 9.6 S 7 7 4 4 1018.0 1017.6 0.0
22/09:00pm 22.4 19.7 3.5 29 9.1 S 7 7 4 4 1017.8 1017.4 0.0
22/08:30pm 23.6 20.6 1.9 24 10.3 SE 7 9 4 5 1017.3 1016.9 0.0
22/08:00pm 23.9 21.5 2.1 24 10.4 SE 4 7 2 4 1017.1 1016.7 0.0
22/07:30pm 24.6 20.9 0.2 20 11.3 SE 9 9 5 5 1016.7 1016.3 0.0
22/07:00pm 25.2 21.7 -1.6 17 12.0 SSE 7 9 4 5 1016.3 1015.9 0.0
22/06:30pm 26.5 21.8 -5.2 12 13.5 SSE 11 15 6 8 1016.0 1015.6 0.0
22/06:00pm 27.6 22.4 -6.7 10 14.3 SSE 13 17 7 9 1015.7 1015.3 0.0
22/05:30pm 27.9 21.8 -7.9 9 14.7 SSE 17 32 9 17 1015.5 1015.1 0.0
22/05:00pm 28.4 22.3 -7.5 9 14.9 SE 17 24 9 13 1015.2 1014.8 0.0
22/04:30pm 28.5 22.0 -7.4 9 15.0 SSE 19 28 10 15 1015.0 1014.6 0.0
22/04:00pm 28.4 22.3 -7.5 9 14.9 SE 17 26 9 14 1015.1 1014.7 0.0
22/03:30pm 28.8 22.4 -7.2 9 15.1 SSE 19 30 10 16 1015.2 1014.8 0.0
22/03:00pm 28.0 20.9 -7.8 9 14.7 SSE 22 32 12 17 1015.3 1014.9 0.0
22/02:30pm 27.9 21.3 -6.5 10 14.5 S 20 28 11 15 1015.4 1015.0 0.0
22/02:00pm 27.2 20.8 -7.0 10 14.2 SSE 19 28 10 15 1015.8 1015.4 0.0
22/01:30pm 27.1 21.1 -7.1 10 14.1 SSE 17 26 9 14 1016.1 1015.7 0.0
22/01:00pm 26.1 20.9 -6.6 11 13.5 SE 13 24 7 13 1016.7 1016.3 0.0
22/12:30pm 25.7 20.3 -8.2 10 13.6 SE 13 20 7 11 1017.2 1016.8 0.0
22/12:00pm 25.3 19.6 -7.2 11 13.2 ESE 15 20 8 11 1018.0 1017.6 0.0
22/11:30am 24.6 19.1 -5.6 13 12.5 SE 15 22 8 12 1018.4 1018.0 0.0
22/11:00am 24.3 19.1 -3.1 16 11.9 SSE 15 20 8 11 1018.6 1018.3 0.0
22/10:30am 24.4 18.4 -3.0 16 11.9 SSE 19 26 10 14 1018.6 1018.3 0.0
22/10:00am 24.2 17.6 -3.2 16 11.8 SSE 22 30 12 16 1018.6 1018.3 0.0
22/09:30am 22.6 16.5 -3.7 17 11.1 SSE 19 24 10 13 1018.9 1018.5 0.0
22/09:00am 22.7 16.6 -2.1 19 10.8 SSE 20 28 11 15 1018.4 1018.0 1.2
22/08:30am 21.7 15.8 -0.9 22 10.0 SSE 20 26 11 14 1017.9 1017.5 1.2
22/08:00am 20.2 15.7 2.1 30 8.4 SSE 15 22 8 12 1017.5 1017.1 1.2
22/07:30am 19.0 14.9 2.4 33 7.7 SSE 13 17 7 9 1017.1 1016.7 1.2
22/07:00am 18.3 14.3 2.6 35 7.2 SSE 13 15 7 8 1017.0 1016.6 1.2
22/06:30am 18.4 14.8 2.7 35 7.3 SE 11 15 6 8 1016.7 1016.3 1.2
22/06:00am 18.4 14.9 3.5 37 7.0 SSE 11 15 6 8 1016.2 1015.8 1.2
22/05:30am 18.8 14.9 3.4 36 7.3 S 13 19 7 10 1015.6 1015.2 1.2
22/05:00am 19.3 15.1 3.9 36 7.4 S 15 19 8 10 1015.0 1014.6 1.2
22/04:30am 19.1 15.8 6.6 44 6.3 S 13 19 7 10 1014.3 1013.9 1.2
22/04:00am 19.5 15.6 7.3 45 6.2 SSW 17 20 9 11 1014.5 1014.1 1.2
22/03:30am 19.6 17.0 9.2 51 5.5 SSW 13 17 7 9 1014.2 1013.8 1.2
22/03:00am 20.2 16.8 9.2 49 5.9 SSW 17 24 9 13 1014.1 1013.7 1.2
22/02:30am 20.8 17.5 9.7 49 6.0 SW 17 20 9 11 1014.2 1013.8 1.2
22/02:00am 21.0 17.8 9.9 49 6.0 SW 17 20 9 11 1014.2 1013.8 1.2
22/01:30am 21.3 18.2 10.2 49 6.1 SW 17 20 9 11 1014.2 1013.8 1.2
22/01:00am 21.7 18.2 10.2 48 6.3 SW 19 22 10 12 1014.3 1013.9 1.2
22/12:30am 22.4 18.8 10.5 47 6.6 SW 20 26 11 14 1014.2 1013.8 1.2
22/12:00am 23.0 19.5 10.8 46 6.8 SW 20 24 11 13 1013.9 1013.5 1.2
 
Date/Time
EST
Temp
°C
App
Temp
°C
Dew
Point
°C
Rel
Hum
%
Delta-T
°C
Wind Press
QNH
hPa
Press
MSL
hPa
Rain since
9am
mm
Dir  Spd
km/h
Gust
km/h
Spd
kts
Gust
kts
21/11:30pm 23.7 20.5 11.1 45 7.1 SW 19 28 10 15 1013.6 1013.2 1.2
21/11:00pm 24.1 21.8 11.8 46 7.0 SW 15 20 8 11 1013.4 1013.0 1.2
21/10:30pm 24.7 21.6 11.6 44 7.5 SW 19 26 10 14 1013.2 1012.8 1.2

Other formats

Comma delimited format used in spreadsheet applications
http://www.bom.gov.au/fwo/IDQ60801/IDQ60801.94489.axf

JavaScript Object Notation format (JSON) in row-major order
http://www.bom.gov.au/fwo/IDQ60801/IDQ60801.94489.json

Data quality

Most of these data are generated automatically and are frequently updated. Quality checks on data are not normally performed. It is possible for incorrect values to appear. Refer to information at About Latest Weather Observations and please check the disclaimer before using these data.